Destinations Pula Airport

Pula Airport (LDPL / PUY)

Flights to Pula Airport

Flight number From ETE Dispatch
SPY-528 EHGG Groningen Airport Eelde 02:05

Flights from Pula Airport

Flight number To ETE Dispatch
SPY-529 EHGG Groningen Airport Eelde
About

Pula Airport facts

Pula Airport is located in Pula at an elevation of 83.5 meters or 274 feet.

Currently, Speedy Airlines serves 2 flights to and from Pula Airport.

Detailed airport info

Route map

Weather

Current weather

METAR

METAR

Metar data retrieved Sunday, 21 July 2024 at 18:55 UTC

LDPL 211830Z 28005KT CAVOK 25/19 Q1009 NOSIG
Wind Temperature
5 kt 25c